createdAt,value
2023-08-12T00:00:12.674Z,5.25
2023-08-12T00:02:45.163Z,4.78
2023-08-12T00:05:14.470Z,4.82
2023-08-12T00:07:43.388Z,4.78
2023-08-12T00:10:14.088Z,4.75
2023-08-12T00:12:42.325Z,4.65
2023-08-12T00:15:12.510Z,5.00
2023-08-12T00:17:43.189Z,5.28
2023-08-12T00:20:13.561Z,5.70
2023-08-12T00:22:42.766Z,5.10
2023-08-12T00:25:10.984Z,5.87
2023-08-12T00:27:40.243Z,5.40
2023-08-12T00:30:09.174Z,4.78
2023-08-12T00:32:40.003Z,4.43
2023-08-12T00:35:09.093Z,3.35
2023-08-12T00:37:37.098Z,3.08
2023-08-12T00:40:07.931Z,3.15
2023-08-12T00:42:35.922Z,4.95
2023-08-12T00:45:05.607Z,5.20
2023-08-12T00:50:03.463Z,4.90
2023-08-12T00:52:32.018Z,5.20
2023-08-12T00:55:00.100Z,4.80
2023-08-12T00:57:29.148Z,5.28
2023-08-12T00:59:58.701Z,4.80
2023-08-12T01:02:26.899Z,4.55
2023-08-12T01:04:56.130Z,4.73
2023-08-12T01:07:25.955Z,4.50
2023-08-12T01:09:54.345Z,4.97
2023-08-12T01:12:28.753Z,5.00
2023-08-12T01:15:11.951Z,4.90
2023-08-12T01:17:43.630Z,5.53
2023-08-12T01:20:14.115Z,5.53
2023-08-12T01:22:47.848Z,5.10
2023-08-12T01:25:18.060Z,5.18
2023-08-12T01:27:47.310Z,5.40
2023-08-12T01:32:55.758Z,6.30
2023-08-12T01:35:28.304Z,6.13
2023-08-12T01:38:00.414Z,6.57
2023-08-12T01:40:31.480Z,7.10
2023-08-12T01:43:02.050Z,8.13
2023-08-12T01:45:33.096Z,7.32
2023-08-12T01:48:01.730Z,8.32
2023-08-12T01:50:29.944Z,8.07
2023-08-12T01:53:00.030Z,9.20
2023-08-12T01:55:29.404Z,8.30
2023-08-12T01:57:58.494Z,9.32
2023-08-12T02:00:26.988Z,9.98
2023-08-12T02:02:55.203Z,10.88
2023-08-12T02:05:23.663Z,11.95
2023-08-12T02:07:52.200Z,12.38
2023-08-12T02:10:21.193Z,12.80
2023-08-12T02:12:50.552Z,12.20
2023-08-12T02:15:19.319Z,13.70
2023-08-12T02:17:47.869Z,14.00
2023-08-12T02:20:16.052Z,13.48
2023-08-12T02:22:44.576Z,13.18
2023-08-12T02:25:13.059Z,14.82
2023-08-12T02:27:41.187Z,14.52
2023-08-12T02:30:13.634Z,16.42
2023-08-12T02:32:44.540Z,15.63
2023-08-12T02:35:13.550Z,16.10
2023-08-12T02:37:41.501Z,17.27
2023-08-12T02:40:11.712Z,18.13
2023-08-12T02:42:40.600Z,17.98
2023-08-12T02:45:08.976Z,18.95
2023-08-12T02:47:38.888Z,16.80
2023-08-12T02:52:35.799Z,15.20
2023-08-12T02:55:05.040Z,16.92
2023-08-12T02:57:33.090Z,16.20
2023-08-12T03:00:01.797Z,18.15
2023-08-12T03:02:29.891Z,17.70
2023-08-12T03:04:59.323Z,18.83
2023-08-12T03:07:28.176Z,19.60
2023-08-12T03:09:56.251Z,19.73
2023-08-12T03:12:24.402Z,19.42
2023-08-12T03:14:53.295Z,20.23
2023-08-12T03:17:21.414Z,18.75
2023-08-12T03:19:50.798Z,20.08
2023-08-12T03:22:20.290Z,19.85
2023-08-12T03:24:51.904Z,19.35
2023-08-12T03:27:19.969Z,18.67
2023-08-12T03:29:48.886Z,18.87
2023-08-12T03:32:18.258Z,19.88
2023-08-12T03:34:46.327Z,19.92
2023-08-12T03:37:14.639Z,20.52
2023-08-12T03:39:45.877Z,20.70
2023-08-12T03:42:15.740Z,20.30
2023-08-12T03:44:44.746Z,20.98
2023-08-12T03:47:13.392Z,19.67
2023-08-12T03:49:42.970Z,21.77
2023-08-12T03:52:11.526Z,23.40
2023-08-12T03:54:39.567Z,22.15
2023-08-12T03:57:09.748Z,23.27
2023-08-12T03:59:39.122Z,21.88
2023-08-12T04:02:08.674Z,21.23
2023-08-12T04:04:36.665Z,23.95
2023-08-12T04:07:05.111Z,23.40
2023-08-12T04:09:33.161Z,22.70
2023-08-12T04:12:01.182Z,23.75
2023-08-12T04:14:31.688Z,23.95
2023-08-12T04:16:59.782Z,26.42
2023-08-12T04:19:27.787Z,30.08
2023-08-12T04:21:56.779Z,30.90
2023-08-12T04:24:24.851Z,32.30
2023-08-12T04:26:53.307Z,32.83
2023-08-12T04:29:21.400Z,36.38
2023-08-12T04:31:51.169Z,34.25
2023-08-12T04:34:20.117Z,35.30
2023-08-12T04:36:48.093Z,36.25
2023-08-12T04:39:17.070Z,36.35
2023-08-12T04:41:47.926Z,34.00
2023-08-12T04:44:17.580Z,36.00
2023-08-12T04:46:45.786Z,32.00
2023-08-12T04:49:15.200Z,32.40
2023-08-12T04:51:44.926Z,32.22
2023-08-12T04:54:13.922Z,31.70
2023-08-12T04:56:44.644Z,30.25
2023-08-12T04:59:12.976Z,30.85
2023-08-12T05:01:54.476Z,29.05
2023-08-12T05:04:32.596Z,28.95
2023-08-12T05:07:00.605Z,30.02
2023-08-12T05:09:29.175Z,30.10
2023-08-12T05:11:57.166Z,30.20
2023-08-12T05:14:25.561Z,30.23
2023-08-12T05:16:54.081Z,30.55
2023-08-12T05:19:22.411Z,29.98
2023-08-12T05:21:52.685Z,30.37
2023-08-12T05:24:21.598Z,30.48
2023-08-12T05:26:49.633Z,30.05
2023-08-12T05:29:18.498Z,28.13
2023-08-12T05:31:46.589Z,28.65
2023-08-12T05:34:14.574Z,27.50
2023-08-12T05:36:42.732Z,27.52
2023-08-12T05:39:12.676Z,26.98
2023-08-12T05:41:41.085Z,28.55
2023-08-12T05:44:09.282Z,27.40
2023-08-12T05:46:37.767Z,26.17
2023-08-12T05:49:06.252Z,25.15
2023-08-12T05:51:34.226Z,25.73
2023-08-12T05:54:03.230Z,25.30
2023-08-12T05:56:32.694Z,25.60
2023-08-12T05:59:01.587Z,26.00
2023-08-12T06:01:29.566Z,24.88
2023-08-12T06:03:58.532Z,23.90
2023-08-12T06:06:26.616Z,23.20
2023-08-12T06:08:54.570Z,21.63
2023-08-12T06:11:23.457Z,23.02
2023-08-12T06:13:52.810Z,22.88
2023-08-12T06:16:21.727Z,20.00
2023-08-12T06:18:49.724Z,20.30
2023-08-12T06:21:18.783Z,19.63
2023-08-12T06:23:47.166Z,17.98
2023-08-12T06:26:15.568Z,18.97
2023-08-12T06:28:43.629Z,17.90
2023-08-12T06:31:13.054Z,16.45
2023-08-12T06:33:41.671Z,15.80
2023-08-12T06:36:09.653Z,15.55
2023-08-12T06:38:37.682Z,15.02
2023-08-12T06:41:05.741Z,15.88
2023-08-12T06:43:33.744Z,16.15
2023-08-12T06:46:01.798Z,15.50
2023-08-12T06:48:31.431Z,13.30
2023-08-12T06:51:00.364Z,13.57
2023-08-12T06:53:28.750Z,13.35
2023-08-12T06:55:57.609Z,13.55
2023-08-12T06:58:25.536Z,14.10
2023-08-12T07:00:54.494Z,12.68
2023-08-12T07:03:23.035Z,13.27
2023-08-12T07:05:52.506Z,13.27
2023-08-12T07:08:20.561Z,12.85
2023-08-12T07:10:49.065Z,11.73
2023-08-12T07:13:17.514Z,12.48
2023-08-12T07:15:45.978Z,10.63
2023-08-12T07:18:14.050Z,10.10
2023-08-12T07:20:42.503Z,12.05
2023-08-12T07:23:11.883Z,11.00
2023-08-12T07:25:40.123Z,11.43
2023-08-12T07:28:08.261Z,11.32
2023-08-12T07:30:37.347Z,10.35
2023-08-12T07:33:06.685Z,10.00
2023-08-12T07:35:34.908Z,10.73
2023-08-12T07:38:03.055Z,9.70
2023-08-12T07:40:32.755Z,10.20
2023-08-12T07:45:29.032Z,9.50
2023-08-12T07:47:57.229Z,11.13
2023-08-12T07:50:25.853Z,11.35
2023-08-12T07:52:54.565Z,10.80
2023-08-12T07:55:24.915Z,10.73
2023-08-12T07:57:56.186Z,10.57
2023-08-12T08:00:24.418Z,10.35
2023-08-12T08:02:52.413Z,10.32
2023-08-12T08:05:21.394Z,10.15
2023-08-12T08:07:49.422Z,11.55
2023-08-12T08:10:17.706Z,10.90
2023-08-12T08:12:46.114Z,11.40
2023-08-12T08:15:15.488Z,12.20
2023-08-12T08:17:43.736Z,12.02
2023-08-12T08:20:12.360Z,12.43
2023-08-12T08:22:40.734Z,12.25
2023-08-12T08:25:10.012Z,13.65
2023-08-12T08:27:38.469Z,14.00
2023-08-12T08:30:07.371Z,14.85
2023-08-12T08:32:36.740Z,14.37
2023-08-12T08:35:06.057Z,14.57
2023-08-12T08:37:34.138Z,15.33
2023-08-12T08:40:02.601Z,16.15
2023-08-12T08:42:31.104Z,14.95
2023-08-12T08:45:04.739Z,15.13
2023-08-12T08:47:33.612Z,14.02
2023-08-12T08:50:03.618Z,14.53
2023-08-12T08:52:32.522Z,14.05
2023-08-12T08:55:04.196Z,14.05
2023-08-12T08:57:43.664Z,12.20
2023-08-12T09:00:18.195Z,13.73
2023-08-12T09:02:49.401Z,13.88
2023-08-12T09:05:19.797Z,12.95
2023-08-12T09:07:49.541Z,11.25
2023-08-12T09:12:48.666Z,12.32
2023-08-12T09:15:20.039Z,12.30
2023-08-12T09:17:48.139Z,13.10
2023-08-12T09:20:17.151Z,11.85
2023-08-12T09:22:47.027Z,13.05
2023-08-12T09:25:15.052Z,12.50
2023-08-12T09:27:42.991Z,11.13
2023-08-12T09:30:14.818Z,10.93
2023-08-12T09:32:44.400Z,10.95
2023-08-12T09:35:19.400Z,10.38
2023-08-12T09:37:48.897Z,9.38
2023-08-12T09:40:17.220Z,7.68
2023-08-12T09:42:49.840Z,7.40
2023-08-12T09:45:21.603Z,6.95
2023-08-12T09:47:50.487Z,6.05
2023-08-12T09:50:18.683Z,5.18
2023-08-12T09:52:49.010Z,4.00
2023-08-12T09:55:19.340Z,4.20
2023-08-12T09:57:50.156Z,4.07
2023-08-12T10:00:20.681Z,4.07
2023-08-12T10:02:49.891Z,4.55
2023-08-12T10:05:24.040Z,4.40
2023-08-12T10:07:55.837Z,4.00
2023-08-12T10:10:25.225Z,4.03
2023-08-12T10:12:54.043Z,4.20
2023-08-12T10:15:23.744Z,4.00
2023-08-12T10:17:54.169Z,3.88
2023-08-12T10:20:24.164Z,3.63
2023-08-12T10:22:54.347Z,3.60
2023-08-12T10:25:24.126Z,2.90
2023-08-12T10:27:54.126Z,3.00
2023-08-12T10:30:23.164Z,2.70
2023-08-12T10:32:51.955Z,2.90
2023-08-12T10:35:20.540Z,2.60
2023-08-12T10:37:52.003Z,2.60
2023-08-12T10:40:25.925Z,2.60
2023-08-12T10:42:54.270Z,2.47
2023-08-12T10:45:22.350Z,2.08
2023-08-12T10:47:54.594Z,2.40
2023-08-12T10:50:27.773Z,2.45
2023-08-12T10:52:56.892Z,2.28
2023-08-12T10:55:29.892Z,2.00
2023-08-12T10:58:00.613Z,2.10
2023-08-12T11:00:31.272Z,1.80
2023-08-12T11:03:00.129Z,1.80
2023-08-12T11:05:38.729Z,1.40
2023-08-12T11:08:08.521Z,1.60
2023-08-12T11:10:37.940Z,1.60
2023-08-12T11:13:06.447Z,1.55
2023-08-12T11:15:38.434Z,1.45
2023-08-12T11:18:07.732Z,1.50
2023-08-12T11:20:36.941Z,1.42
2023-08-12T11:23:06.796Z,1.55
2023-08-12T11:28:06.443Z,1.25
2023-08-12T11:30:34.695Z,1.10
2023-08-12T11:33:04.286Z,1.17
2023-08-12T11:35:32.892Z,1.10
2023-08-12T11:38:01.475Z,1.00
2023-08-12T11:40:30.465Z,1.00
2023-08-12T11:42:59.219Z,1.00
2023-08-12T11:45:29.551Z,1.13
2023-08-12T11:47:59.024Z,0.95
2023-08-12T11:50:28.744Z,1.00
2023-08-12T11:52:59.030Z,1.13
2023-08-12T11:55:27.761Z,0.80
2023-08-12T11:57:56.300Z,1.10
2023-08-12T12:00:29.440Z,0.93
2023-08-12T12:02:58.651Z,1.05
2023-08-12T12:05:28.968Z,1.10
2023-08-12T12:07:57.420Z,1.00
2023-08-12T12:10:34.583Z,0.77
2023-08-12T12:13:05.966Z,1.02
2023-08-12T12:15:41.502Z,1.00
2023-08-12T12:18:12.672Z,1.20
2023-08-12T12:20:45.689Z,1.00
2023-08-12T12:23:13.793Z,1.00
2023-08-12T12:25:43.373Z,0.95
2023-08-12T12:28:11.792Z,1.15
2023-08-12T12:30:41.190Z,1.10
2023-08-12T12:33:10.181Z,0.95
2023-08-12T12:35:51.650Z,1.38
2023-08-12T12:38:25.273Z,1.30
2023-08-12T12:40:53.254Z,1.10
2023-08-12T12:43:21.326Z,1.15
2023-08-12T12:45:51.062Z,1.23
2023-08-12T12:48:19.140Z,1.45
2023-08-12T12:50:47.816Z,1.20
2023-08-12T12:53:15.827Z,1.27
2023-08-12T12:55:45.483Z,1.20
2023-08-12T12:58:14.483Z,1.20
2023-08-12T13:00:42.456Z,1.38
2023-08-12T13:03:13.457Z,1.30
2023-08-12T13:05:41.707Z,1.20
2023-08-12T13:08:09.993Z,1.30
2023-08-12T13:10:38.472Z,1.48
2023-08-12T13:13:06.605Z,1.65
2023-08-12T13:15:35.643Z,1.33
2023-08-12T13:18:04.138Z,1.30
2023-08-12T13:20:34.141Z,1.50
2023-08-12T13:23:02.712Z,1.60
2023-08-12T13:25:32.552Z,1.65
2023-08-12T13:28:01.714Z,1.88
2023-08-12T13:30:30.415Z,2.50
2023-08-12T13:33:01.703Z,1.85
2023-08-12T13:35:30.199Z,2.17
2023-08-12T13:38:00.080Z,2.60
2023-08-12T13:40:28.295Z,2.22
2023-08-12T13:42:58.159Z,2.50
2023-08-12T13:45:26.366Z,1.80
2023-08-12T13:47:54.530Z,1.58
2023-08-12T13:50:22.719Z,1.70
2023-08-12T13:52:52.055Z,1.80
2023-08-12T13:55:21.473Z,1.50
2023-08-12T13:57:49.514Z,1.58
2023-08-12T14:00:18.585Z,1.48
2023-08-12T14:02:48.665Z,1.70
2023-08-12T14:05:16.883Z,1.55
2023-08-12T14:07:45.580Z,1.33
2023-08-12T14:10:13.658Z,1.60
2023-08-12T14:12:43.609Z,1.70
2023-08-12T14:15:12.266Z,1.98
2023-08-12T14:17:40.970Z,2.72
2023-08-12T14:20:11.752Z,2.50
2023-08-12T14:22:39.771Z,2.63
2023-08-12T14:25:09.132Z,2.80
2023-08-12T14:27:37.709Z,2.90
2023-08-12T14:30:08.451Z,3.00
2023-08-12T14:32:36.734Z,3.10
2023-08-12T14:35:06.666Z,3.38
2023-08-12T14:37:34.773Z,3.30
2023-08-12T14:40:05.667Z,3.45
2023-08-12T14:42:33.754Z,3.78
2023-08-12T14:45:01.771Z,3.55
2023-08-12T14:47:31.788Z,4.30
2023-08-12T14:49:59.993Z,4.25
2023-08-12T14:52:28.424Z,3.63
2023-08-12T14:54:56.819Z,3.40
2023-08-12T14:57:24.825Z,3.88
2023-08-12T14:59:52.845Z,4.32
2023-08-12T15:02:22.776Z,4.10
2023-08-12T15:04:53.166Z,3.90
2023-08-12T15:07:23.044Z,4.15
2023-08-12T15:09:53.084Z,3.90
2023-08-12T15:14:49.889Z,3.17
2023-08-12T15:17:18.601Z,2.40
2023-08-12T15:19:46.604Z,2.43
2023-08-12T15:22:16.094Z,2.58
2023-08-12T15:27:12.311Z,2.55
2023-08-12T15:29:40.671Z,3.10
2023-08-12T15:32:08.769Z,3.50
2023-08-12T15:34:36.918Z,3.80
2023-08-12T15:37:07.507Z,3.45
2023-08-12T15:39:37.796Z,3.67
2023-08-12T15:42:06.512Z,3.90
2023-08-12T15:44:34.999Z,3.17
2023-08-12T15:47:02.998Z,3.67
2023-08-12T15:49:35.173Z,3.22
2023-08-12T15:52:03.600Z,3.15
2023-08-12T15:54:31.654Z,3.10
2023-08-12T15:57:02.233Z,3.88
2023-08-12T15:59:30.347Z,3.85
2023-08-12T16:01:58.711Z,3.33
2023-08-12T16:04:27.999Z,3.30
2023-08-12T16:06:56.059Z,3.67
2023-08-12T16:09:24.266Z,3.85
2023-08-12T16:11:52.692Z,3.00
2023-08-12T16:14:22.217Z,2.78
2023-08-12T16:16:50.737Z,1.90
2023-08-12T16:19:18.955Z,1.88
2023-08-12T16:21:46.982Z,2.15
2023-08-12T16:24:15.493Z,1.55
2023-08-12T16:26:43.906Z,1.10
2023-08-12T16:29:12.339Z,1.38
2023-08-12T16:31:42.249Z,1.23
2023-08-12T16:34:10.448Z,1.40
2023-08-12T16:36:38.889Z,1.60
2023-08-12T16:39:08.687Z,1.60
2023-08-12T16:41:38.425Z,1.13
2023-08-12T16:44:06.722Z,1.30
2023-08-12T16:46:34.693Z,1.30
2023-08-12T16:49:05.231Z,0.73
2023-08-12T16:51:34.232Z,0.90
2023-08-12T16:54:02.182Z,0.70
2023-08-12T16:56:31.851Z,0.80
2023-08-12T16:59:01.286Z,0.80
2023-08-12T17:01:29.400Z,0.80
2023-08-12T17:03:57.948Z,0.93
2023-08-12T17:06:27.319Z,1.10
2023-08-12T17:08:55.809Z,0.90
2023-08-12T17:11:24.353Z,0.90
2023-08-12T17:13:52.485Z,1.42
2023-08-12T17:16:20.549Z,1.25
2023-08-12T17:18:49.443Z,1.00
2023-08-12T17:21:17.478Z,1.40
2023-08-12T17:23:47.325Z,1.20
2023-08-12T17:26:15.801Z,1.30
2023-08-12T17:28:43.760Z,1.38
2023-08-12T17:31:13.004Z,1.23
2023-08-12T17:33:41.683Z,1.52
2023-08-12T17:36:09.685Z,1.30
2023-08-12T17:38:38.144Z,1.45
2023-08-12T17:41:07.674Z,1.48
2023-08-12T17:46:04.046Z,1.42
2023-08-12T17:48:33.012Z,1.77
2023-08-12T17:51:01.053Z,1.95
2023-08-12T17:53:29.564Z,2.00
2023-08-12T17:55:57.608Z,1.90
2023-08-12T17:58:27.581Z,2.20
2023-08-12T18:00:56.556Z,2.25
2023-08-12T18:03:24.675Z,2.63
2023-08-12T18:05:53.767Z,3.00
2023-08-12T18:08:21.959Z,2.60
2023-08-12T18:10:49.969Z,3.05
2023-08-12T18:13:21.478Z,3.20
2023-08-12T18:15:51.226Z,2.70
2023-08-12T18:18:20.245Z,3.47
2023-08-12T18:20:48.755Z,3.78
2023-08-12T18:23:17.686Z,3.75
2023-08-12T18:25:45.969Z,3.20
2023-08-12T18:28:14.051Z,3.50
2023-08-12T18:30:42.999Z,3.53
2023-08-12T18:33:14.974Z,3.40
2023-08-12T18:35:43.853Z,3.90
2023-08-12T18:38:11.931Z,4.13
2023-08-12T18:40:39.964Z,3.83
2023-08-12T18:43:08.894Z,4.03
2023-08-12T18:45:37.613Z,3.22
2023-08-12T18:48:07.742Z,3.47
2023-08-12T18:53:05.927Z,3.70
2023-08-12T18:55:34.865Z,3.90
2023-08-12T18:58:03.097Z,3.95
2023-08-12T19:00:31.439Z,4.13
2023-08-12T19:03:00.041Z,4.10
2023-08-12T19:05:28.688Z,4.30
2023-08-12T19:07:58.540Z,4.25
2023-08-12T19:10:26.689Z,4.70
2023-08-12T19:12:55.592Z,4.97
2023-08-12T19:15:24.639Z,4.68
2023-08-12T19:17:52.763Z,5.18
2023-08-12T19:20:21.099Z,5.25
2023-08-12T19:22:50.498Z,5.30
2023-08-12T19:25:20.064Z,4.70
2023-08-12T19:27:48.107Z,5.25
2023-08-12T19:30:16.247Z,4.60
2023-08-12T19:32:52.737Z,5.50
2023-08-12T19:35:22.305Z,4.90
2023-08-12T19:37:53.477Z,5.80
2023-08-12T19:40:23.068Z,5.47
2023-08-12T19:42:51.094Z,5.15
2023-08-12T19:45:20.647Z,5.82
2023-08-12T19:47:49.153Z,5.85
2023-08-12T19:50:17.657Z,6.35
2023-08-12T19:52:45.675Z,6.90
2023-08-12T19:55:14.217Z,7.18
2023-08-12T19:59:26.545Z,6.30
2023-08-12T20:01:54.631Z,6.35
2023-08-12T20:04:24.570Z,5.00
2023-08-12T20:06:53.098Z,5.38
2023-08-12T20:09:21.147Z,5.40
2023-08-12T20:11:49.937Z,5.78
2023-08-12T20:14:17.972Z,4.95
2023-08-12T20:16:47.803Z,4.32
2023-08-12T20:19:16.431Z,4.88
2023-08-12T20:21:44.621Z,4.90
2023-08-12T20:24:12.830Z,4.40
2023-08-12T20:26:40.804Z,4.50
2023-08-12T20:29:09.867Z,4.43
2023-08-12T20:31:37.870Z,4.47
2023-08-12T20:34:08.594Z,4.57
2023-08-12T20:39:05.871Z,4.27
2023-08-12T20:41:35.497Z,3.90
2023-08-12T20:44:03.732Z,4.28
2023-08-12T20:46:31.902Z,4.60
2023-08-12T20:49:00.565Z,4.30
2023-08-12T20:51:29.945Z,4.43
2023-08-12T20:53:58.578Z,4.10
2023-08-12T20:56:26.707Z,5.35
2023-08-12T20:58:54.645Z,5.03
2023-08-12T21:01:23.859Z,4.47
2023-08-12T21:03:52.079Z,4.43
2023-08-12T21:06:20.143Z,4.43
2023-08-12T21:08:50.604Z,5.40
2023-08-12T21:11:19.157Z,4.55
2023-08-12T21:13:48.082Z,3.75
2023-08-12T21:16:16.135Z,3.88
2023-08-12T21:18:45.124Z,3.35
2023-08-12T21:21:13.174Z,3.88
2023-08-12T21:23:41.148Z,3.70
2023-08-12T21:26:11.228Z,3.60
2023-08-12T21:28:39.467Z,3.45
2023-08-12T21:31:07.495Z,3.17
2023-08-12T21:33:36.442Z,3.13
2023-08-12T21:36:04.839Z,3.03
2023-08-12T21:38:32.866Z,3.35
2023-08-12T21:41:02.335Z,3.03
2023-08-12T21:43:57.805Z,3.28
2023-08-12T21:46:32.702Z,2.55
2023-08-12T21:49:01.857Z,3.17
2023-08-12T21:51:30.364Z,2.63
2023-08-12T21:53:59.414Z,3.17
2023-08-12T21:56:27.553Z,2.75
2023-08-12T21:58:57.717Z,2.92
2023-08-12T22:01:26.042Z,2.88
2023-08-12T22:03:54.382Z,3.22
2023-08-12T22:06:22.468Z,3.40
2023-08-12T22:08:51.384Z,3.05
2023-08-12T22:11:19.429Z,2.60
2023-08-12T22:13:48.379Z,2.13
2023-08-12T22:16:17.786Z,2.45
2023-08-12T22:18:47.005Z,2.53
2023-08-12T22:21:15.116Z,2.78
2023-08-12T22:23:43.095Z,3.15
2023-08-12T22:26:12.557Z,2.42
2023-08-12T22:28:40.842Z,3.35
2023-08-12T22:31:09.076Z,3.33
2023-08-12T22:33:39.574Z,3.83
2023-08-12T22:36:11.711Z,4.35
2023-08-12T22:38:41.832Z,4.28
2023-08-12T22:41:10.063Z,4.55
2023-08-12T22:43:38.703Z,4.53
2023-08-12T22:46:07.772Z,4.68
2023-08-12T22:48:35.814Z,4.55
2023-08-12T22:51:05.829Z,4.97
2023-08-12T22:53:34.200Z,4.32
2023-08-12T22:56:02.724Z,4.57
2023-08-12T22:58:30.840Z,4.00
2023-08-12T23:00:59.302Z,4.00
2023-08-12T23:03:27.920Z,3.92
2023-08-12T23:05:55.948Z,4.10
2023-08-12T23:08:25.448Z,3.80
2023-08-12T23:10:55.408Z,3.85
2023-08-12T23:13:23.929Z,3.72
2023-08-12T23:15:52.774Z,4.35
2023-08-12T23:18:21.284Z,4.00
2023-08-12T23:20:49.807Z,4.25
2023-08-12T23:23:17.940Z,5.10
2023-08-12T23:25:47.808Z,5.40
2023-08-12T23:28:15.803Z,7.28
2023-08-12T23:30:44.303Z,7.65
2023-08-12T23:33:12.755Z,8.45
2023-08-12T23:35:41.587Z,8.65
2023-08-12T23:38:10.727Z,8.65
2023-08-12T23:40:38.758Z,8.27
2023-08-12T23:43:09.087Z,8.32
2023-08-12T23:45:38.109Z,9.30
2023-08-12T23:48:06.843Z,8.80
2023-08-12T23:50:35.509Z,9.07
2023-08-12T23:53:04.630Z,8.55
2023-08-12T23:55:34.727Z,9.45
2023-08-12T23:58:02.912Z,9.63
